createdAt,value
2023-04-15T00:00:59.155Z,8.07
2023-04-15T00:03:26.804Z,8.04
2023-04-15T00:05:53.969Z,8.03
2023-04-15T00:08:20.923Z,8.03
2023-04-15T00:10:48.996Z,8.05
2023-04-15T00:13:16.520Z,8.06
2023-04-15T00:15:43.626Z,8.06
2023-04-15T00:18:10.663Z,8.06
2023-04-15T00:20:38.030Z,8.05
2023-04-15T00:23:05.174Z,8.03
2023-04-15T00:25:32.638Z,7.99
2023-04-15T00:27:59.794Z,7.97
2023-04-15T00:30:26.831Z,7.95
2023-04-15T00:32:54.018Z,7.93
2023-04-15T00:35:21.363Z,7.93
2023-04-15T00:37:48.928Z,7.95
2023-04-15T00:40:17.260Z,7.96
2023-04-15T00:42:45.081Z,7.96
2023-04-15T00:45:12.553Z,7.96
2023-04-15T00:47:41.255Z,7.94
2023-04-15T00:50:09.103Z,7.91
2023-04-15T00:52:35.959Z,7.90
2023-04-15T00:55:04.253Z,7.89
2023-04-15T00:57:31.289Z,7.89
2023-04-15T00:59:58.583Z,7.90
2023-04-15T01:02:25.752Z,7.90
2023-04-15T01:04:52.829Z,7.91
2023-04-15T01:07:19.927Z,7.90
2023-04-15T01:09:47.589Z,7.90
2023-04-15T01:12:16.064Z,7.88
2023-04-15T01:14:43.224Z,7.87
2023-04-15T01:17:10.281Z,7.87
2023-04-15T01:19:37.840Z,7.83
2023-04-15T01:22:05.196Z,7.81
2023-04-15T01:24:33.580Z,7.82
2023-04-15T01:27:00.709Z,7.81
2023-04-15T01:29:28.206Z,7.79
2023-04-15T01:31:56.450Z,7.79
2023-04-15T01:34:26.698Z,7.80
2023-04-15T01:36:54.672Z,7.81
2023-04-15T01:39:22.244Z,7.83
2023-04-15T01:41:49.204Z,7.83
2023-04-15T01:44:16.519Z,7.84
2023-04-15T01:46:43.584Z,7.85
2023-04-15T01:49:11.277Z,7.86
2023-04-15T01:51:38.364Z,7.86
2023-04-15T01:54:06.598Z,7.86
2023-04-15T01:56:33.691Z,7.84
2023-04-15T01:59:01.436Z,7.82
2023-04-15T02:01:28.874Z,7.80
2023-04-15T02:03:59.415Z,7.77
2023-04-15T02:06:27.662Z,7.73
2023-04-15T02:08:55.595Z,7.70
2023-04-15T02:11:22.740Z,7.65
2023-04-15T02:13:49.896Z,7.56
2023-04-15T02:16:18.798Z,7.50
2023-04-15T02:18:46.479Z,7.46
2023-04-15T02:21:13.817Z,7.43
2023-04-15T02:23:41.095Z,7.40
2023-04-15T02:26:08.302Z,7.37
2023-04-15T02:28:35.801Z,7.34
2023-04-15T02:31:07.725Z,7.31
2023-04-15T02:33:35.222Z,7.28
2023-04-15T02:36:02.241Z,7.27
2023-04-15T02:38:30.496Z,7.27
2023-04-15T02:40:57.719Z,7.25
2023-04-15T02:43:24.812Z,7.25
2023-04-15T02:45:52.261Z,7.26
2023-04-15T02:48:20.651Z,7.28
2023-04-15T02:50:47.592Z,7.30
2023-04-15T02:53:15.037Z,7.31
2023-04-15T02:55:42.313Z,7.32
2023-04-15T02:58:09.232Z,7.30
2023-04-15T03:00:36.285Z,7.30
2023-04-15T03:03:04.536Z,7.28
2023-04-15T03:05:32.174Z,7.27
2023-04-15T03:08:00.718Z,7.24
2023-04-15T03:10:28.078Z,7.22
2023-04-15T03:12:55.244Z,7.18
2023-04-15T03:15:23.510Z,7.14
2023-04-15T03:17:52.481Z,7.09
2023-04-15T03:20:20.018Z,7.04
2023-04-15T03:22:48.048Z,7.00
2023-04-15T03:25:15.408Z,6.94
2023-04-15T03:27:43.002Z,6.90
2023-04-15T03:30:11.152Z,6.86
2023-04-15T03:32:38.753Z,6.82
2023-04-15T03:35:07.784Z,6.78
2023-04-15T03:37:35.188Z,6.74
2023-04-15T03:40:02.260Z,6.70
2023-04-15T03:42:29.406Z,6.65
2023-04-15T03:44:56.441Z,6.62
2023-04-15T03:47:23.619Z,6.59
2023-04-15T03:49:50.589Z,6.54
2023-04-15T03:52:17.497Z,6.50
2023-04-15T03:54:44.554Z,6.48
2023-04-15T03:57:11.706Z,6.46
2023-04-15T03:59:38.655Z,6.43
2023-04-15T04:02:06.115Z,6.39
2023-04-15T04:04:33.324Z,6.30
2023-04-15T04:07:00.634Z,6.23
2023-04-15T04:09:27.790Z,6.19
2023-04-15T04:11:55.766Z,6.16
2023-04-15T04:14:28.954Z,6.15
2023-04-15T04:16:56.911Z,6.10
2023-04-15T04:19:23.879Z,6.08
2023-04-15T04:21:51.039Z,6.09
2023-04-15T04:24:18.091Z,6.12
2023-04-15T04:26:44.938Z,6.15
2023-04-15T04:29:12.196Z,6.19
2023-04-15T04:31:39.388Z,6.22
2023-04-15T04:34:06.373Z,6.25
2023-04-15T04:36:33.178Z,6.31
2023-04-15T04:39:01.183Z,6.37
2023-04-15T04:41:28.463Z,6.42
2023-04-15T04:43:55.482Z,6.47
2023-04-15T04:46:23.385Z,6.52
2023-04-15T04:48:50.557Z,6.56
2023-04-15T04:51:17.721Z,6.60
2023-04-15T04:53:44.672Z,6.66
2023-04-15T04:56:11.720Z,6.71
2023-04-15T04:58:38.571Z,6.76
2023-04-15T05:01:05.549Z,6.82
2023-04-15T05:03:32.556Z,6.88
2023-04-15T05:05:59.530Z,6.95
2023-04-15T05:08:26.332Z,7.01
2023-04-15T05:10:53.320Z,7.09
2023-04-15T05:13:21.298Z,7.15
2023-04-15T05:15:48.522Z,7.22
2023-04-15T05:18:15.610Z,7.29
2023-04-15T05:20:42.606Z,7.36
2023-04-15T05:23:09.618Z,7.42
2023-04-15T05:25:36.772Z,7.50
2023-04-15T05:28:03.934Z,7.58
2023-04-15T05:30:30.979Z,7.68
2023-04-15T05:32:58.093Z,7.78
2023-04-15T05:35:25.287Z,7.89
2023-04-15T05:37:52.341Z,8.01
2023-04-15T05:40:19.805Z,8.15
2023-04-15T05:42:46.836Z,8.26
2023-04-15T05:45:13.910Z,8.39
2023-04-15T05:47:41.330Z,8.58
2023-04-15T05:50:08.651Z,8.74
2023-04-15T05:52:36.469Z,8.89
2023-04-15T05:55:03.560Z,9.04
2023-04-15T05:57:30.406Z,9.23
2023-04-15T05:59:57.556Z,9.39
2023-04-15T06:02:24.751Z,9.56
2023-04-15T06:04:51.912Z,9.72
2023-04-15T06:07:19.030Z,9.87
2023-04-15T06:09:46.005Z,9.99
2023-04-15T06:12:13.378Z,10.10
2023-04-15T06:14:40.567Z,10.16
2023-04-15T06:17:07.956Z,10.22
2023-04-15T06:19:36.154Z,10.26
2023-04-15T06:22:03.080Z,10.32
2023-04-15T06:24:30.937Z,10.41
2023-04-15T06:26:57.905Z,10.52
2023-04-15T06:29:24.854Z,10.64
2023-04-15T06:31:52.012Z,10.75
2023-04-15T06:34:19.169Z,10.85
2023-04-15T06:36:46.318Z,10.92
2023-04-15T06:39:13.373Z,11.01
2023-04-15T06:41:40.479Z,11.05
2023-04-15T06:44:07.579Z,11.13
2023-04-15T06:46:34.754Z,11.14
2023-04-15T06:49:03.179Z,11.17
2023-04-15T06:51:31.091Z,11.22
2023-04-15T06:53:57.953Z,11.28
2023-04-15T06:56:24.995Z,11.34
2023-04-15T06:58:52.016Z,11.43
2023-04-15T07:01:19.314Z,11.55
2023-04-15T07:03:46.469Z,11.70
2023-04-15T07:06:13.924Z,11.81
2023-04-15T07:08:41.376Z,11.91
2023-04-15T07:11:08.339Z,11.98
2023-04-15T07:13:35.833Z,12.05
2023-04-15T07:16:02.961Z,12.13
2023-04-15T07:18:30.087Z,12.20
2023-04-15T07:20:57.262Z,12.32
2023-04-15T07:23:24.346Z,12.46
2023-04-15T07:25:51.883Z,12.56
2023-04-15T07:28:18.833Z,12.60
2023-04-15T07:30:45.848Z,12.61
2023-04-15T07:33:13.246Z,12.61
2023-04-15T07:35:40.300Z,12.66
2023-04-15T07:38:07.965Z,12.74
2023-04-15T07:40:34.917Z,12.88
2023-04-15T07:43:02.088Z,13.02
2023-04-15T07:45:29.132Z,13.04
2023-04-15T07:47:56.432Z,13.03
2023-04-15T07:50:24.022Z,12.91
2023-04-15T07:52:52.029Z,12.86
2023-04-15T07:55:21.083Z,12.93
2023-04-15T07:57:48.494Z,12.99
2023-04-15T08:00:15.849Z,12.99
2023-04-15T08:02:43.216Z,13.00
2023-04-15T08:05:10.625Z,13.03
2023-04-15T08:07:38.049Z,13.06
2023-04-15T08:10:05.904Z,13.11
2023-04-15T08:12:32.862Z,13.15
2023-04-15T08:15:00.418Z,13.16
2023-04-15T08:17:27.912Z,13.19
2023-04-15T08:19:54.839Z,13.23
2023-04-15T08:22:22.412Z,13.26
2023-04-15T08:24:49.752Z,13.20
2023-04-15T08:27:17.009Z,13.22
2023-04-15T08:29:45.289Z,13.27
2023-04-15T08:32:12.459Z,13.34
2023-04-15T08:34:39.709Z,13.29
2023-04-15T08:37:06.773Z,13.23
2023-04-15T08:39:33.806Z,13.20
2023-04-15T08:42:02.212Z,13.06
2023-04-15T08:44:32.930Z,13.02
2023-04-15T08:47:03.086Z,13.03
2023-04-15T08:49:30.933Z,13.03
2023-04-15T08:51:58.490Z,12.96
2023-04-15T08:54:26.787Z,12.98
2023-04-15T08:56:54.170Z,13.06
2023-04-15T08:59:21.643Z,13.17
2023-04-15T09:01:50.546Z,13.33
2023-04-15T09:04:17.927Z,13.50
2023-04-15T09:06:45.084Z,13.58
2023-04-15T09:09:13.799Z,13.47
2023-04-15T09:11:41.780Z,13.46
2023-04-15T09:14:08.944Z,13.49
2023-04-15T09:16:55.204Z,13.46
2023-04-15T09:19:23.816Z,13.50
2023-04-15T09:21:56.623Z,13.56
2023-04-15T09:24:26.613Z,13.54
2023-04-15T09:26:57.464Z,13.49
2023-04-15T09:29:26.245Z,13.24
2023-04-15T09:31:53.209Z,13.19
2023-04-15T09:34:21.061Z,13.17
2023-04-15T09:36:51.042Z,13.15
2023-04-15T09:39:18.307Z,13.11
2023-04-15T09:41:45.603Z,13.09
2023-04-15T09:44:25.553Z,13.03
2023-04-15T09:46:52.624Z,12.94
2023-04-15T09:49:20.504Z,12.92
2023-04-15T09:52:01.331Z,12.94
2023-04-15T09:54:33.284Z,12.90
2023-04-15T09:57:04.872Z,12.89
2023-04-15T09:59:32.464Z,12.86
2023-04-15T10:02:00.587Z,12.84
2023-04-15T10:04:29.297Z,12.83
2023-04-15T10:06:56.633Z,12.78
2023-04-15T10:09:23.544Z,12.74
2023-04-15T10:11:51.035Z,12.74
2023-04-15T10:14:18.636Z,12.74
2023-04-15T10:16:48.560Z,12.82
2023-04-15T10:19:18.879Z,12.99
2023-04-15T10:21:46.243Z,13.13
2023-04-15T10:24:14.230Z,13.28
2023-04-15T10:26:42.508Z,13.53
2023-04-15T10:29:10.375Z,13.88
2023-04-15T10:31:38.406Z,14.27
2023-04-15T10:34:06.053Z,14.80
2023-04-15T10:36:32.960Z,15.08
2023-04-15T10:38:59.916Z,15.14
2023-04-15T10:41:30.595Z,15.46
2023-04-15T10:44:02.472Z,15.79
2023-04-15T10:46:40.068Z,16.11
2023-04-15T10:49:08.914Z,16.60
2023-04-15T10:51:37.311Z,17.11
2023-04-15T10:54:08.528Z,17.76
2023-04-15T10:56:35.437Z,18.57
2023-04-15T10:59:04.780Z,19.05
2023-04-15T11:01:51.669Z,19.42
2023-04-15T11:04:37.496Z,19.95
2023-04-15T11:07:05.889Z,20.28
2023-04-15T11:09:33.304Z,20.55
2023-04-15T11:12:08.080Z,21.12
2023-04-15T11:14:39.142Z,21.62
2023-04-15T11:17:05.959Z,21.97
2023-04-15T11:19:37.328Z,22.20
2023-04-15T11:22:10.793Z,21.70
2023-04-15T11:24:46.864Z,22.00
2023-04-15T11:27:21.290Z,22.61
2023-04-15T11:29:48.072Z,23.01
2023-04-15T11:32:15.213Z,23.05
2023-04-15T11:34:45.611Z,22.53
2023-04-15T11:37:13.285Z,22.09
2023-04-15T11:39:41.323Z,21.50
2023-04-15T11:42:17.832Z,21.38
2023-04-15T11:44:44.768Z,21.81
2023-04-15T11:47:24.626Z,22.29
2023-04-15T11:49:51.468Z,22.05
2023-04-15T11:52:18.541Z,21.97
2023-04-15T11:54:45.391Z,22.53
2023-04-15T11:57:12.986Z,23.38
2023-04-15T11:59:45.516Z,23.68
2023-04-15T12:02:13.825Z,23.49
2023-04-15T12:04:41.088Z,22.92
2023-04-15T12:07:08.071Z,22.42
2023-04-15T12:09:39.359Z,22.69
2023-04-15T12:12:06.647Z,22.89
2023-04-15T12:14:33.593Z,22.65
2023-04-15T12:17:04.794Z,22.30
2023-04-15T12:19:35.482Z,22.07
2023-04-15T12:22:04.862Z,21.61
2023-04-15T12:24:32.533Z,21.08
2023-04-15T12:27:06.551Z,20.46
2023-04-15T12:29:34.173Z,19.94
2023-04-15T12:32:04.416Z,19.57
2023-04-15T12:34:32.351Z,19.18
2023-04-15T12:37:00.449Z,18.90
2023-04-15T12:39:30.665Z,18.39
2023-04-15T12:41:59.633Z,17.82
2023-04-15T12:44:27.369Z,17.25
2023-04-15T12:46:54.533Z,16.85
2023-04-15T12:49:22.547Z,16.42
2023-04-15T12:51:50.491Z,16.07
2023-04-15T12:54:18.018Z,15.75
2023-04-15T12:56:45.863Z,15.30
2023-04-15T12:59:12.913Z,14.64
2023-04-15T13:01:40.278Z,13.89
2023-04-15T13:04:07.735Z,13.47
2023-04-15T13:06:35.337Z,13.43
2023-04-15T13:09:04.526Z,13.88
2023-04-15T13:11:36.207Z,14.61
2023-04-15T13:14:04.733Z,15.37
2023-04-15T13:16:32.563Z,15.99
2023-04-15T13:19:00.363Z,16.20
2023-04-15T13:21:27.984Z,16.41
2023-04-15T13:23:55.255Z,16.96
2023-04-15T13:26:22.314Z,17.33
2023-04-15T13:28:49.279Z,17.64
2023-04-15T13:31:16.319Z,17.98
2023-04-15T13:33:43.365Z,18.38
2023-04-15T13:36:10.297Z,18.79
2023-04-15T13:38:37.393Z,19.04
2023-04-15T13:41:04.314Z,19.02
2023-04-15T13:43:33.107Z,18.79
2023-04-15T13:46:00.185Z,18.61
2023-04-15T13:48:27.062Z,18.33
2023-04-15T13:50:53.823Z,18.13
2023-04-15T13:53:20.695Z,17.97
2023-04-15T13:56:01.071Z,17.85
2023-04-15T13:58:27.932Z,17.77
2023-04-15T14:00:55.586Z,17.65
2023-04-15T14:03:22.779Z,17.51
2023-04-15T14:05:55.327Z,17.31
2023-04-15T14:08:22.695Z,17.12
2023-04-15T14:10:50.026Z,16.87
2023-04-15T14:13:18.927Z,16.78
2023-04-15T14:15:47.329Z,16.70
2023-04-15T14:18:14.260Z,16.59
2023-04-15T14:20:41.232Z,16.51
2023-04-15T14:23:08.262Z,16.48
2023-04-15T14:25:35.296Z,16.43
2023-04-15T14:28:02.817Z,16.44
2023-04-15T14:30:29.701Z,16.55
2023-04-15T14:32:56.561Z,16.73
2023-04-15T14:35:26.022Z,16.99
2023-04-15T14:37:53.350Z,17.35
2023-04-15T14:40:20.289Z,17.78
2023-04-15T14:42:47.288Z,18.07
2023-04-15T14:45:14.114Z,18.37
2023-04-15T14:47:41.085Z,18.51
2023-04-15T14:50:08.308Z,18.78
2023-04-15T14:52:38.365Z,19.02
2023-04-15T14:55:09.903Z,19.17
2023-04-15T14:57:37.136Z,19.35
2023-04-15T15:00:04.887Z,19.51
2023-04-15T15:02:39.161Z,19.62
2023-04-15T15:05:08.464Z,19.68
2023-04-15T15:07:36.572Z,19.75
2023-04-15T15:10:03.892Z,19.76
2023-04-15T15:12:30.913Z,19.75
2023-04-15T15:14:57.973Z,19.59
2023-04-15T15:17:25.035Z,19.10
2023-04-15T15:19:51.975Z,18.98
2023-04-15T15:22:20.838Z,18.91
2023-04-15T15:24:48.390Z,18.89
2023-04-15T15:27:15.273Z,18.87
2023-04-15T15:29:42.329Z,18.84
2023-04-15T15:32:09.273Z,18.82
2023-04-15T15:34:36.203Z,18.73
2023-04-15T15:37:03.126Z,18.54
2023-04-15T15:39:29.966Z,18.38
2023-04-15T15:41:57.074Z,18.10
2023-04-15T15:44:24.061Z,17.79
2023-04-15T15:46:51.059Z,17.63
2023-04-15T15:49:19.223Z,17.61
2023-04-15T15:51:46.233Z,17.67
2023-04-15T15:54:13.042Z,17.72
2023-04-15T15:56:41.560Z,17.75
2023-04-15T15:59:08.469Z,17.75
2023-04-15T16:01:35.401Z,17.69
2023-04-15T16:04:02.583Z,17.62
2023-04-15T16:06:31.721Z,17.47
2023-04-15T16:09:00.464Z,17.40
2023-04-15T16:11:27.559Z,17.38
2023-04-15T16:13:54.689Z,17.31
2023-04-15T16:16:21.680Z,17.21
2023-04-15T16:18:48.533Z,17.13
2023-04-15T16:21:15.541Z,17.01
2023-04-15T16:23:42.368Z,16.95
2023-04-15T16:26:09.201Z,16.89
2023-04-15T16:28:36.181Z,16.82
2023-04-15T16:31:03.003Z,16.60
2023-04-15T16:33:29.813Z,16.45
2023-04-15T16:35:56.723Z,16.34
2023-04-15T16:38:23.536Z,16.19
2023-04-15T16:40:51.306Z,16.02
2023-04-15T16:43:18.317Z,15.85
2023-04-15T16:45:50.206Z,15.71
2023-04-15T16:48:17.742Z,15.53
2023-04-15T16:50:44.782Z,15.28
2023-04-15T16:53:11.644Z,15.05
2023-04-15T16:55:39.227Z,14.86
2023-04-15T16:58:07.962Z,14.70
2023-04-15T17:00:36.233Z,14.57
2023-04-15T17:03:03.192Z,14.42
2023-04-15T17:05:30.933Z,14.27
2023-04-15T17:07:57.985Z,14.12
2023-04-15T17:10:24.923Z,13.97
2023-04-15T17:12:52.400Z,13.81
2023-04-15T17:15:19.553Z,13.64
2023-04-15T17:17:46.431Z,13.46
2023-04-15T17:20:13.697Z,13.27
2023-04-15T17:22:40.628Z,13.07
2023-04-15T17:25:07.758Z,12.89
2023-04-15T17:27:34.695Z,12.75
2023-04-15T17:30:01.623Z,12.60
2023-04-15T17:32:31.351Z,12.44
2023-04-15T17:34:58.422Z,12.26
2023-04-15T17:37:25.369Z,12.09
2023-04-15T17:39:52.456Z,11.90
2023-04-15T17:42:19.590Z,11.64
2023-04-15T17:44:46.734Z,11.44
2023-04-15T17:47:13.790Z,11.29
2023-04-15T17:49:40.868Z,11.18
2023-04-15T17:52:07.905Z,11.01
2023-04-15T17:54:35.354Z,10.80
2023-04-15T17:57:02.660Z,10.60
2023-04-15T17:59:29.668Z,10.47
2023-04-15T18:01:57.992Z,10.39
2023-04-15T18:04:26.699Z,10.31
2023-04-15T18:06:54.253Z,10.23
2023-04-15T18:09:21.257Z,10.15
2023-04-15T18:11:48.446Z,10.05
2023-04-15T18:14:26.693Z,9.92
2023-04-15T18:17:00.663Z,9.80
2023-04-15T18:19:27.636Z,9.68
2023-04-15T18:21:54.647Z,9.58
2023-04-15T18:24:21.995Z,9.46
2023-04-15T18:26:49.463Z,9.29
2023-04-15T18:29:18.076Z,9.14
2023-04-15T18:31:45.647Z,9.00
2023-04-15T18:34:12.978Z,8.92
2023-04-15T18:36:40.029Z,8.86
2023-04-15T18:39:07.321Z,8.78
2023-04-15T18:41:34.592Z,8.70
2023-04-15T18:44:01.542Z,8.61
2023-04-15T18:46:28.822Z,8.51
2023-04-15T18:48:55.757Z,8.39
2023-04-15T18:51:23.066Z,8.30
2023-04-15T18:53:50.017Z,8.22
2023-04-15T18:56:16.963Z,8.14
2023-04-15T18:59:18.470Z,8.08
2023-04-15T19:01:31.425Z,8.00
2023-04-15T19:03:59.033Z,7.91
2023-04-15T19:06:26.671Z,7.83
2023-04-15T19:08:54.066Z,7.76
2023-04-15T19:11:21.206Z,7.71
2023-04-15T19:13:48.208Z,7.66
2023-04-15T19:16:15.812Z,7.59
2023-04-15T19:18:43.465Z,7.52
2023-04-15T19:21:13.591Z,7.46
2023-04-15T19:23:42.618Z,7.43
2023-04-15T19:26:09.860Z,7.40
2023-04-15T19:28:36.732Z,7.40
2023-04-15T19:31:04.091Z,7.40
2023-04-15T19:33:31.606Z,7.39
2023-04-15T19:36:03.786Z,7.40
2023-04-15T19:38:31.473Z,7.42
2023-04-15T19:40:58.728Z,7.43
2023-04-15T19:43:25.888Z,7.44
2023-04-15T19:45:54.084Z,7.38
2023-04-15T19:48:22.330Z,7.33
2023-04-15T19:50:49.449Z,7.32
2023-04-15T19:53:16.488Z,7.30
2023-04-15T19:55:43.402Z,7.27
2023-04-15T19:58:10.856Z,7.23
2023-04-15T20:00:37.918Z,7.17
2023-04-15T20:03:05.195Z,7.12
2023-04-15T20:05:32.145Z,7.05
2023-04-15T20:08:00.396Z,6.97
2023-04-15T20:10:27.464Z,6.94
2023-04-15T20:12:54.470Z,6.91
2023-04-15T20:15:22.942Z,6.88
2023-04-15T20:17:50.074Z,6.84
2023-04-15T20:20:17.031Z,6.76
2023-04-15T20:22:43.861Z,6.69
2023-04-15T20:25:10.872Z,6.61
2023-04-15T20:27:37.839Z,6.57
2023-04-15T20:30:05.196Z,6.51
2023-04-15T20:32:35.131Z,6.49
2023-04-15T20:35:02.999Z,6.46
2023-04-15T20:37:32.448Z,6.45
2023-04-15T20:40:00.294Z,6.42
2023-04-15T20:42:27.641Z,6.40
2023-04-15T20:44:54.563Z,6.40
2023-04-15T20:47:21.536Z,6.41
2023-04-15T20:49:48.789Z,6.39
2023-04-15T20:52:15.843Z,6.35
2023-04-15T20:54:42.904Z,6.29
2023-04-15T20:57:10.161Z,6.24
2023-04-15T20:59:37.310Z,6.22
2023-04-15T21:02:04.557Z,6.20
2023-04-15T21:04:31.932Z,6.18
2023-04-15T21:06:59.023Z,6.14
2023-04-15T21:09:26.138Z,6.12
2023-04-15T21:12:01.277Z,6.11
2023-04-15T21:14:28.832Z,6.12
2023-04-15T21:16:59.122Z,6.13
2023-04-15T21:19:26.020Z,6.15
2023-04-15T21:21:52.976Z,6.17
2023-04-15T21:24:20.127Z,6.19
2023-04-15T21:26:47.183Z,6.21
2023-04-15T21:29:14.346Z,6.23
2023-04-15T21:31:41.760Z,6.24
2023-04-15T21:34:09.273Z,6.24
2023-04-15T21:36:36.988Z,6.24
2023-04-15T21:39:04.846Z,6.25
2023-04-15T21:41:36.145Z,6.26
2023-04-15T21:44:03.813Z,6.26
2023-04-15T21:46:32.925Z,6.26
2023-04-15T21:49:02.001Z,6.26
2023-04-15T21:51:28.941Z,6.28
2023-04-15T21:53:55.764Z,6.29
2023-04-15T21:56:23.791Z,6.30
2023-04-15T21:58:57.188Z,6.32
2023-04-15T22:01:24.659Z,6.33
2023-04-15T22:03:52.078Z,6.33
2023-04-15T22:06:19.368Z,6.32
2023-04-15T22:08:56.300Z,6.31
2023-04-15T22:11:33.528Z,6.30
2023-04-15T22:14:00.695Z,6.29
2023-04-15T22:16:28.027Z,6.30
2023-04-15T22:18:55.373Z,6.30
2023-04-15T22:21:22.666Z,6.29
2023-04-15T22:23:51.655Z,6.25
2023-04-15T22:26:18.485Z,6.25
2023-04-15T22:28:45.497Z,6.24
2023-04-15T22:31:13.252Z,6.25
2023-04-15T22:33:40.483Z,6.22
2023-04-15T22:36:07.666Z,6.20
2023-04-15T22:38:35.599Z,6.14
2023-04-15T22:41:02.512Z,6.06
2023-04-15T22:43:29.330Z,6.02
2023-04-15T22:45:56.451Z,6.01
2023-04-15T22:48:23.521Z,6.00
2023-04-15T22:50:50.570Z,5.97
2023-04-15T22:53:17.750Z,5.94
2023-04-15T22:55:46.326Z,5.91
2023-04-15T22:58:13.848Z,5.87
2023-04-15T23:00:40.859Z,5.83
2023-04-15T23:03:07.894Z,5.78
2023-04-15T23:05:35.067Z,5.71
2023-04-15T23:08:02.014Z,5.65
2023-04-15T23:10:28.910Z,5.62
2023-04-15T23:12:56.618Z,5.57
2023-04-15T23:15:23.681Z,5.55
2023-04-15T23:17:50.780Z,5.53
2023-04-15T23:20:17.750Z,5.52
2023-04-15T23:22:45.162Z,5.49
2023-04-15T23:25:12.170Z,5.46
2023-04-15T23:27:39.039Z,5.43
2023-04-15T23:30:06.613Z,5.41
2023-04-15T23:32:33.701Z,5.34
2023-04-15T23:35:00.799Z,5.24
2023-04-15T23:37:29.414Z,5.16
2023-04-15T23:39:56.555Z,5.12
2023-04-15T23:42:23.804Z,5.06
2023-04-15T23:44:51.163Z,4.99
2023-04-15T23:47:18.230Z,4.92
2023-04-15T23:49:45.138Z,4.87
2023-04-15T23:52:12.090Z,4.84
2023-04-15T23:54:39.171Z,4.81
2023-04-15T23:57:06.104Z,4.76
2023-04-15T23:59:33.395Z,4.69
